createdAt,value
2022-10-07T00:04:22.414Z,26.30
2022-10-07T00:14:29.539Z,24.60
2022-10-07T00:24:36.712Z,22.40
2022-10-07T00:34:44.131Z,25.00
2022-10-07T00:44:51.116Z,24.10
2022-10-07T00:55:02.472Z,23.30
2022-10-07T01:05:14.390Z,21.60
2022-10-07T01:15:20.484Z,21.80
2022-10-07T01:25:33.714Z,25.50
2022-10-07T01:35:45.210Z,24.10
2022-10-07T01:45:56.104Z,20.20
2022-10-07T01:56:13.110Z,20.60
2022-10-07T02:06:23.888Z,19.20
2022-10-07T02:16:34.995Z,20.80
2022-10-07T02:26:44.853Z,24.30
2022-10-07T02:36:54.929Z,27.90
2022-10-07T02:46:59.661Z,19.80
2022-10-07T02:57:09.477Z,20.70
2022-10-07T03:07:15.801Z,21.20
2022-10-07T03:17:23.208Z,21.40
2022-10-07T03:27:30.535Z,22.10
2022-10-07T03:37:36.799Z,21.50
2022-10-07T03:47:44.158Z,25.30
2022-10-07T03:57:58.424Z,28.40
2022-10-07T04:08:07.233Z,23.00
2022-10-07T04:18:14.215Z,23.40
2022-10-07T04:28:23.597Z,30.80
2022-10-07T04:38:32.792Z,38.10
2022-10-07T04:48:39.983Z,31.00
2022-10-07T04:58:47.143Z,36.60
2022-10-07T05:08:54.708Z,24.40
2022-10-07T05:19:00.656Z,27.70
2022-10-07T05:29:08.069Z,38.10
2022-10-07T05:39:14.676Z,24.80
2022-10-07T05:49:21.794Z,35.20
2022-10-07T05:59:28.992Z,36.80
2022-10-07T06:09:53.597Z,21.90
2022-10-07T06:20:03.048Z,23.30
2022-10-07T06:30:13.240Z,28.00
2022-10-07T06:40:20.735Z,25.10
2022-10-07T06:50:27.967Z,23.50
2022-10-07T07:00:34.917Z,26.40
2022-10-07T07:10:44.357Z,21.70
2022-10-07T07:20:52.016Z,15.70
2022-10-07T07:30:59.231Z,13.10
2022-10-07T07:41:07.451Z,9.90
2022-10-07T07:51:13.567Z,10.20
2022-10-07T08:01:21.185Z,9.90
2022-10-07T08:11:29.259Z,9.50
2022-10-07T08:21:36.448Z,7.80
2022-10-07T08:31:44.370Z,6.30
2022-10-07T08:41:57.143Z,4.90
2022-10-07T08:52:07.118Z,3.60
2022-10-07T09:02:17.401Z,3.80
2022-10-07T09:12:25.891Z,4.30
2022-10-07T09:22:37.641Z,5.90
2022-10-07T09:32:45.728Z,7.60
2022-10-07T09:42:54.509Z,6.90
2022-10-07T09:53:02.651Z,7.50
2022-10-07T10:03:10.125Z,6.40
2022-10-07T10:13:29.064Z,7.00
2022-10-07T10:23:38.690Z,7.10
2022-10-07T10:33:43.628Z,5.30
2022-10-07T10:44:01.181Z,3.40
2022-10-07T10:54:10.554Z,4.60
2022-10-07T11:04:26.114Z,5.00
2022-10-07T11:14:37.987Z,4.10
2022-10-07T11:24:49.789Z,3.90
2022-10-07T11:34:58.096Z,3.70
2022-10-07T11:45:06.360Z,3.20
2022-10-07T12:05:51.138Z,3.60
2022-10-07T12:16:19.125Z,3.70
2022-10-07T12:26:51.660Z,3.70
2022-10-07T12:37:36.201Z,3.10
2022-10-07T12:47:45.281Z,3.20
2022-10-07T12:57:55.082Z,3.60
2022-10-07T13:08:35.539Z,3.90
2022-10-07T13:18:44.717Z,4.40
2022-10-07T13:28:55.149Z,3.70
2022-10-07T13:39:11.294Z,3.30
2022-10-07T13:49:23.101Z,4.70
2022-10-07T13:59:36.775Z,4.30
2022-10-07T14:09:50.447Z,4.20
2022-10-07T14:20:00.457Z,4.80
2022-10-07T14:30:32.082Z,4.80
2022-10-07T14:40:39.801Z,4.30
2022-10-07T14:50:46.968Z,5.30
2022-10-07T15:00:54.049Z,5.60
2022-10-07T15:11:02.989Z,4.40
2022-10-07T15:21:09.103Z,5.10
2022-10-07T15:31:17.856Z,5.20
2022-10-07T15:41:33.020Z,5.50
2022-10-07T15:51:40.811Z,4.80
2022-10-07T16:01:52.033Z,6.30
2022-10-07T16:11:59.388Z,7.60
2022-10-07T16:22:06.598Z,7.20
2022-10-07T16:32:14.443Z,7.40
2022-10-07T16:42:20.776Z,11.60
2022-10-07T16:52:26.843Z,12.30
2022-10-07T17:02:34.162Z,14.60
2022-10-07T17:12:40.346Z,19.50
2022-10-07T17:22:47.832Z,29.10
2022-10-07T17:32:55.025Z,21.10
2022-10-07T17:43:01.712Z,21.00
2022-10-07T17:53:09.005Z,24.40
2022-10-07T18:03:16.383Z,20.00
2022-10-07T18:13:41.477Z,22.30
2022-10-07T18:23:48.684Z,26.80
2022-10-07T18:33:55.997Z,26.50
2022-10-07T18:44:03.139Z,28.90
2022-10-07T18:54:11.663Z,28.80
2022-10-07T19:04:18.965Z,30.00
2022-10-07T19:14:31.169Z,29.50
2022-10-07T19:24:56.447Z,31.70
2022-10-07T19:35:03.711Z,32.60
2022-10-07T19:45:14.429Z,38.10
2022-10-07T19:55:22.081Z,38.50
2022-10-07T20:05:29.921Z,39.20
2022-10-07T20:15:37.342Z,40.90
2022-10-07T20:25:45.871Z,41.70
2022-10-07T20:35:52.567Z,43.20
2022-10-07T20:45:59.898Z,40.90
2022-10-07T20:56:05.937Z,39.90
2022-10-07T21:06:13.161Z,39.40
2022-10-07T21:16:19.722Z,35.00
2022-10-07T21:26:26.653Z,40.60
2022-10-07T21:36:34.260Z,38.50
2022-10-07T21:46:42.611Z,40.50
2022-10-07T21:56:50.805Z,37.90
2022-10-07T22:07:16.100Z,41.50
2022-10-07T22:17:23.526Z,37.00
2022-10-07T22:27:30.588Z,37.90
2022-10-07T22:37:38.447Z,34.70
2022-10-07T22:47:45.509Z,34.10
2022-10-07T22:57:52.956Z,34.80
2022-10-07T23:08:00.042Z,35.10
2022-10-07T23:18:06.226Z,39.20
2022-10-07T23:28:13.268Z,37.30
2022-10-07T23:38:20.427Z,35.70
2022-10-07T23:48:27.898Z,35.60
2022-10-07T23:58:36.007Z,34.00
